sensor_id;sensor_type;location;lat;lon;timestamp;pressure;altitude;pressure_sealevel;temperature;humidity
47738;BME280;33502;47.182;27.506;2022-12-01T00:00:46;101487.25;;;-0.90;100.00
47738;BME280;33502;47.182;27.506;2022-12-01T00:03:12;101491.56;;;-0.92;100.00
47738;BME280;33502;47.182;27.506;2022-12-01T00:05:38;101491.50;;;-0.94;100.00
47738;BME280;33502;47.182;27.506;2022-12-01T00:08:04;101497.63;;;-0.93;100.00
47738;BME280;33502;47.182;27.506;2022-12-01T00:10:32;101494.16;;;-0.92;100.00
47738;BME280;33502;47.182;27.506;2022-12-01T00:13:00;101495.84;;;-0.94;100.00
47738;BME280;33502;47.182;27.506;2022-12-01T00:15:28;101507.13;;;-0.94;100.00
47738;BME280;33502;47.182;27.506;2022-12-01T00:17:55;101506.31;;;-0.91;100.00
47738;BME280;33502;47.182;27.506;2022-12-01T00:20:20;101500.22;;;-0.93;100.00
47738;BME280;33502;47.182;27.506;2022-12-01T00:22:47;101505.41;;;-0.93;100.00
47738;BME280;33502;47.182;27.506;2022-12-01T00:25:15;101500.19;;;-0.95;100.00
47738;BME280;33502;47.182;27.506;2022-12-01T00:27:41;101501.03;;;-0.94;100.00
47738;BME280;33502;47.182;27.506;2022-12-01T00:30:09;101500.19;;;-0.95;100.00
47738;BME280;33502;47.182;27.506;2022-12-01T00:32:36;101497.53;;;-0.96;100.00
47738;BME280;33502;47.182;27.506;2022-12-01T00:35:03;101498.38;;;-0.98;100.00
47738;BME280;33502;47.182;27.506;2022-12-01T00:37:30;101485.34;;;-0.98;100.00
47738;BME280;33502;47.182;27.506;2022-12-01T00:39:57;101492.34;;;-0.96;100.00
47738;BME280;33502;47.182;27.506;2022-12-01T00:42:23;101480.16;;;-0.98;100.00
47738;BME280;33502;47.182;27.506;2022-12-01T00:44:49;101476.66;;;-1.00;100.00
47738;BME280;33502;47.182;27.506;2022-12-01T00:47:15;101478.38;;;-1.00;100.00
47738;BME280;33502;47.182;27.506;2022-12-01T00:49:41;101475.78;;;-1.00;100.00
47738;BME280;33502;47.182;27.506;2022-12-01T00:52:08;101477.50;;;-1.01;100.00
47738;BME280;33502;47.182;27.506;2022-12-01T00:54:33;101476.59;;;-1.03;100.00
47738;BME280;33502;47.182;27.506;2022-12-01T00:56:59;101466.97;;;-1.05;100.00
47738;BME280;33502;47.182;27.506;2022-12-01T00:59:25;101464.38;;;-1.07;100.00
47738;BME280;33502;47.182;27.506;2022-12-01T01:01:51;101466.06;;;-1.07;100.00
47738;BME280;33502;47.182;27.506;2022-12-01T01:04:18;101466.97;;;-1.07;100.00
47738;BME280;33502;47.182;27.506;2022-12-01T01:06:44;101462.66;;;-1.06;100.00
47738;BME280;33502;47.182;27.506;2022-12-01T01:09:11;101457.50;;;-1.05;100.00
47738;BME280;33502;47.182;27.506;2022-12-01T01:11:37;101450.53;;;-1.06;100.00
47738;BME280;33502;47.182;27.506;2022-12-01T01:14:03;101443.59;;;-1.07;100.00
47738;BME280;33502;47.182;27.506;2022-12-01T01:16:29;101454.81;;;-1.08;100.00
47738;BME280;33502;47.182;27.506;2022-12-01T01:18:55;101456.53;;;-1.08;100.00
47738;BME280;33502;47.182;27.506;2022-12-01T01:21:22;101467.72;;;-1.11;100.00
47738;BME280;33502;47.182;27.506;2022-12-01T01:23:49;101467.72;;;-1.11;100.00
47738;BME280;33502;47.182;27.506;2022-12-01T01:26:24;101459.91;;;-1.11;100.00
47738;BME280;33502;47.182;27.506;2022-12-01T01:28:50;101462.50;;;-1.12;100.00
47738;BME280;33502;47.182;27.506;2022-12-01T01:31:20;101452.13;;;-1.12;100.00
47738;BME280;33502;47.182;27.506;2022-12-01T01:33:46;101458.09;;;-1.15;100.00
47738;BME280;33502;47.182;27.506;2022-12-01T01:36:13;101461.56;;;-1.16;100.00
47738;BME280;33502;47.182;27.506;2022-12-01T01:38:40;101454.59;;;-1.17;100.00
47738;BME280;33502;47.182;27.506;2022-12-01T01:41:07;101454.59;;;-1.17;100.00
47738;BME280;33502;47.182;27.506;2022-12-01T01:43:46;101458.00;;;-1.20;100.00
47738;BME280;33502;47.182;27.506;2022-12-01T01:46:15;101460.59;;;-1.20;100.00
47738;BME280;33502;47.182;27.506;2022-12-01T01:48:53;101464.94;;;-1.19;100.00
47738;BME280;33502;47.182;27.506;2022-12-01T01:51:50;101466.72;;;-1.17;100.00
47738;BME280;33502;47.182;27.506;2022-12-01T01:54:51;101464.94;;;-1.20;100.00
47738;BME280;33502;47.182;27.506;2022-12-01T01:57:30;101462.28;;;-1.22;100.00
47738;BME280;33502;47.182;27.506;2022-12-01T02:00:06;101458.78;;;-1.24;100.00
47738;BME280;33502;47.182;27.506;2022-12-01T02:02:39;101463.97;;;-1.24;100.00
47738;BME280;33502;47.182;27.506;2022-12-01T02:05:12;101469.19;;;-1.24;100.00
47738;BME280;33502;47.182;27.506;2022-12-01T02:07:39;101454.44;;;-1.23;100.00
47738;BME280;33502;47.182;27.506;2022-12-01T02:10:08;101453.59;;;-1.24;100.00
47738;BME280;33502;47.182;27.506;2022-12-01T02:12:39;101451.84;;;-1.23;100.00
47738;BME280;33502;47.182;27.506;2022-12-01T02:26:52;101456.97;;;-1.28;100.00
47738;BME280;33502;47.182;27.506;2022-12-01T02:31:59;101441.41;;;-1.25;100.00
47738;BME280;33502;47.182;27.506;2022-12-01T02:42:58;101457.91;;;-1.23;100.00
47738;BME280;33502;47.182;27.506;2022-12-01T02:48:48;101456.22;;;-1.22;100.00
47738;BME280;33502;47.182;27.506;2022-12-01T02:51:22;101451.94;;;-1.20;100.00
47738;BME280;33502;47.182;27.506;2022-12-01T02:53:50;101436.34;;;-1.20;100.00
47738;BME280;33502;47.182;27.506;2022-12-01T02:56:19;101426.78;;;-1.21;100.00
47738;BME280;33502;47.182;27.506;2022-12-01T02:58:46;101437.22;;;-1.20;100.00
47738;BME280;33502;47.182;27.506;2022-12-01T03:04:09;101429.34;;;-1.23;100.00
47738;BME280;33502;47.182;27.506;2022-12-01T03:12:20;101439.78;;;-1.21;100.00
47738;BME280;33502;47.182;27.506;2022-12-01T03:17:38;101445.81;;;-1.22;100.00
47738;BME280;33502;47.182;27.506;2022-12-01T03:20:34;101441.50;;;-1.22;100.00
47738;BME280;33502;47.182;27.506;2022-12-01T03:23:08;101437.16;;;-1.21;100.00
47738;BME280;33502;47.182;27.506;2022-12-01T03:25:41;101435.44;;;-1.21;100.00
47738;BME280;33502;47.182;27.506;2022-12-01T03:28:10;101440.69;;;-1.19;100.00
47738;BME280;33502;47.182;27.506;2022-12-01T03:30:37;101448.47;;;-1.19;100.00
47738;BME280;33502;47.182;27.506;2022-12-01T03:33:08;101447.66;;;-1.18;100.00
47738;BME280;33502;47.182;27.506;2022-12-01T03:35:39;101441.53;;;-1.20;100.00
47738;BME280;33502;47.182;27.506;2022-12-01T03:38:10;101448.44;;;-1.21;100.00
47738;BME280;33502;47.182;27.506;2022-12-01T03:40:38;101450.16;;;-1.21;100.00
47738;BME280;33502;47.182;27.506;2022-12-01T03:43:10;101445.78;;;-1.24;100.00
47738;BME280;33502;47.182;27.506;2022-12-01T03:48:19;101443.97;;;-1.26;100.00
47738;BME280;33502;47.182;27.506;2022-12-01T03:51:01;101445.69;;;-1.27;100.00
47738;BME280;33502;47.182;27.506;2022-12-01T03:53:41;101437.91;;;-1.27;100.00
47738;BME280;33502;47.182;27.506;2022-12-01T03:56:13;101438.75;;;-1.28;100.00
47738;BME280;33502;47.182;27.506;2022-12-01T03:58:43;101436.94;;;-1.30;100.00
47738;BME280;33502;47.182;27.506;2022-12-01T04:01:10;101446.47;;;-1.31;100.00
47738;BME280;33502;47.182;27.506;2022-12-01T04:03:36;101445.59;;;-1.31;100.00
47738;BME280;33502;47.182;27.506;2022-12-01T04:06:03;101451.63;;;-1.32;100.00
47738;BME280;33502;47.182;27.506;2022-12-01T04:08:29;101453.31;;;-1.34;100.00
47738;BME280;33502;47.182;27.506;2022-12-01T04:10:55;101453.31;;;-1.34;100.00
47738;BME280;33502;47.182;27.506;2022-12-01T04:13:21;101455.00;;;-1.36;100.00
47738;BME280;33502;47.182;27.506;2022-12-01T04:15:54;101451.53;;;-1.37;100.00
47738;BME280;33502;47.182;27.506;2022-12-01T04:18:20;101445.47;;;-1.38;100.00
47738;BME280;33502;47.182;27.506;2022-12-01T04:20:47;101448.88;;;-1.39;100.00
47738;BME280;33502;47.182;27.506;2022-12-01T04:23:12;101446.28;;;-1.39;100.00
47738;BME280;33502;47.182;27.506;2022-12-01T04:25:59;101441.94;;;-1.40;100.00
47738;BME280;33502;47.182;27.506;2022-12-01T04:28:26;101451.41;;;-1.42;100.00
47738;BME280;33502;47.182;27.506;2022-12-01T04:30:52;101447.06;;;-1.43;100.00
47738;BME280;33502;47.182;27.506;2022-12-01T04:33:17;101454.78;;;-1.46;100.00
47738;BME280;33502;47.182;27.506;2022-12-01T04:35:43;101455.63;;;-1.47;100.00
47738;BME280;33502;47.182;27.506;2022-12-01T04:38:09;101451.31;;;-1.46;100.00
47738;BME280;33502;47.182;27.506;2022-12-01T04:40:37;101453.03;;;-1.45;100.00
47738;BME280;33502;47.182;27.506;2022-12-01T04:43:02;101458.28;;;-1.44;100.00
47738;BME280;33502;47.182;27.506;2022-12-01T04:45:28;101459.97;;;-1.46;100.00
47738;BME280;33502;47.182;27.506;2022-12-01T04:47:54;101457.38;;;-1.46;100.00
47738;BME280;33502;47.182;27.506;2022-12-01T04:50:20;101453.91;;;-1.46;100.00
47738;BME280;33502;47.182;27.506;2022-12-01T04:52:46;101450.38;;;-1.48;100.00
47738;BME280;33502;47.182;27.506;2022-12-01T04:55:12;101455.59;;;-1.48;100.00
47738;BME280;33502;47.182;27.506;2022-12-01T04:57:39;101446.91;;;-1.49;100.00
47738;BME280;33502;47.182;27.506;2022-12-01T05:00:06;101459.06;;;-1.48;100.00
47738;BME280;33502;47.182;27.506;2022-12-01T05:02:38;101462.50;;;-1.49;100.00
47738;BME280;33502;47.182;27.506;2022-12-01T05:05:10;101460.75;;;-1.50;100.00
47738;BME280;33502;47.182;27.506;2022-12-01T05:07:37;101465.06;;;-1.50;100.00
47738;BME280;33502;47.182;27.506;2022-12-01T05:10:03;101469.38;;;-1.51;100.00
47738;BME280;33502;47.182;27.506;2022-12-01T05:12:29;101472.81;;;-1.52;100.00
47738;BME280;33502;47.182;27.506;2022-12-01T05:14:54;101471.84;;;-1.55;100.00
47738;BME280;33502;47.182;27.506;2022-12-01T05:17:20;101459.63;;;-1.60;100.00
47738;BME280;33502;47.182;27.506;2022-12-01T05:19:46;101460.50;;;-1.59;100.00
47738;BME280;33502;47.182;27.506;2022-12-01T05:22:30;101459.59;;;-1.61;100.00
47738;BME280;33502;47.182;27.506;2022-12-01T05:24:56;101460.47;;;-1.61;100.00
47738;BME280;33502;47.182;27.506;2022-12-01T05:27:22;101466.59;;;-1.59;100.00
47738;BME280;33502;47.182;27.506;2022-12-01T05:29:48;101476.03;;;-1.61;100.00
47738;BME280;33502;47.182;27.506;2022-12-01T05:32:14;101470.84;;;-1.62;100.00
47738;BME280;33502;47.182;27.506;2022-12-01T05:34:39;101476.03;;;-1.61;100.00
47738;BME280;33502;47.182;27.506;2022-12-01T05:37:05;101480.31;;;-1.64;100.00
47738;BME280;33502;47.182;27.506;2022-12-01T05:39:31;101481.13;;;-1.65;100.00
47738;BME280;33502;47.182;27.506;2022-12-01T05:41:57;101484.56;;;-1.66;100.00
47738;BME280;33502;47.182;27.506;2022-12-01T05:44:22;101492.34;;;-1.66;100.00
47738;BME280;33502;47.182;27.506;2022-12-01T05:46:48;101493.19;;;-1.67;100.00
47738;BME280;33502;47.182;27.506;2022-12-01T05:49:14;101497.53;;;-1.66;100.00
47738;BME280;33502;47.182;27.506;2022-12-01T05:51:41;101501.81;;;-1.68;100.00
47738;BME280;33502;47.182;27.506;2022-12-01T05:54:07;101505.13;;;-1.74;100.00
47738;BME280;33502;47.182;27.506;2022-12-01T05:56:33;101506.84;;;-1.74;100.00
47738;BME280;33502;47.182;27.506;2022-12-01T05:58:58;101506.84;;;-1.74;100.00
47738;BME280;33502;47.182;27.506;2022-12-01T06:01:24;101508.59;;;-1.75;100.00
47738;BME280;33502;47.182;27.506;2022-12-01T06:03:51;101505.94;;;-1.77;100.00
47738;BME280;33502;47.182;27.506;2022-12-01T06:06:17;101507.66;;;-1.77;100.00
47738;BME280;33502;47.182;27.506;2022-12-01T06:08:43;101507.72;;;-1.75;100.00
47738;BME280;33502;47.182;27.506;2022-12-01T06:11:09;101513.81;;;-1.73;100.00
47738;BME280;33502;47.182;27.506;2022-12-01T06:13:35;101513.81;;;-1.73;100.00
47738;BME280;33502;47.182;27.506;2022-12-01T06:16:02;101515.56;;;-1.72;100.00
47738;BME280;33502;47.182;27.506;2022-12-01T06:18:30;101510.38;;;-1.72;100.00
47738;BME280;33502;47.182;27.506;2022-12-01T06:20:56;101518.16;;;-1.72;100.00
47738;BME280;33502;47.182;27.506;2022-12-01T06:23:22;101513.94;;;-1.69;100.00
47738;BME280;33502;47.182;27.506;2022-12-01T06:25:48;101511.34;;;-1.69;100.00
47738;BME280;33502;47.182;27.506;2022-12-01T06:28:14;101503.47;;;-1.72;100.00
47738;BME280;33502;47.182;27.506;2022-12-01T06:30:40;101512.03;;;-1.74;100.00
47738;BME280;33502;47.182;27.506;2022-12-01T06:33:06;101512.91;;;-1.74;100.00
47738;BME280;33502;47.182;27.506;2022-12-01T06:35:32;101505.22;;;-1.71;100.00
47738;BME280;33502;47.182;27.506;2022-12-01T06:37:58;101508.69;;;-1.70;100.00
47738;BME280;33502;47.182;27.506;2022-12-01T06:40:23;101500.06;;;-1.69;100.00
47738;BME280;33502;47.182;27.506;2022-12-01T06:42:49;101499.22;;;-1.70;100.00
47738;BME280;33502;47.182;27.506;2022-12-01T06:45:15;101498.25;;;-1.73;100.00
47738;BME280;33502;47.182;27.506;2022-12-01T06:47:41;101500.88;;;-1.72;100.00
47738;BME280;33502;47.182;27.506;2022-12-01T06:50:07;101499.22;;;-1.70;100.00
47738;BME280;33502;47.182;27.506;2022-12-01T06:52:35;101497.44;;;-1.71;100.00
47738;BME280;33502;47.182;27.506;2022-12-01T06:55:01;101503.50;;;-1.70;100.00
47738;BME280;33502;47.182;27.506;2022-12-01T06:57:29;101500.94;;;-1.69;100.00
47738;BME280;33502;47.182;27.506;2022-12-01T06:59:55;101502.69;;;-1.69;100.00
47738;BME280;33502;47.182;27.506;2022-12-01T07:02:20;101507.00;;;-1.68;100.00
47738;BME280;33502;47.182;27.506;2022-12-01T07:04:46;101500.94;;;-1.69;100.00
47738;BME280;33502;47.182;27.506;2022-12-01T07:07:12;101505.28;;;-1.69;100.00
47738;BME280;33502;47.182;27.506;2022-12-01T07:09:38;101507.88;;;-1.69;100.00
47738;BME280;33502;47.182;27.506;2022-12-01T07:12:04;101514.78;;;-1.70;100.00
47738;BME280;33502;47.182;27.506;2022-12-01T07:14:30;101511.38;;;-1.67;100.00
47738;BME280;33502;47.182;27.506;2022-12-01T07:16:57;101517.50;;;-1.65;100.00
47738;BME280;33502;47.182;27.506;2022-12-01T07:19:23;101517.50;;;-1.65;100.00
47738;BME280;33502;47.182;27.506;2022-12-01T07:21:49;101512.28;;;-1.65;100.00
47738;BME280;33502;47.182;27.506;2022-12-01T07:24:15;101513.22;;;-1.63;100.00
47738;BME280;33502;47.182;27.506;2022-12-01T07:26:41;101510.72;;;-1.60;100.00
47738;BME280;33502;47.182;27.506;2022-12-01T07:29:08;101507.25;;;-1.59;100.00
47738;BME280;33502;47.182;27.506;2022-12-01T07:31:35;101504.75;;;-1.56;100.00
47738;BME280;33502;47.182;27.506;2022-12-01T07:34:02;101508.25;;;-1.54;100.00
47738;BME280;33502;47.182;27.506;2022-12-01T07:36:28;101504.84;;;-1.51;100.00
47738;BME280;33502;47.182;27.506;2022-12-01T07:38:54;101503.16;;;-1.51;100.00
47738;BME280;33502;47.182;27.506;2022-12-01T07:41:20;101502.31;;;-1.50;100.00
47738;BME280;33502;47.182;27.506;2022-12-01T07:43:49;101486.72;;;-1.50;100.00
47738;BME280;33502;47.182;27.506;2022-12-01T07:46:21;101481.47;;;-1.51;100.00
47738;BME280;33502;47.182;27.506;2022-12-01T07:48:47;101486.63;;;-1.53;100.00
47738;BME280;33502;47.182;27.506;2022-12-01T07:51:14;101488.50;;;-1.49;100.00
47738;BME280;33502;47.182;27.506;2022-12-01T07:53:42;101491.16;;;-1.46;100.00
47738;BME280;33502;47.182;27.506;2022-12-01T07:56:08;101494.66;;;-1.44;100.00
47738;BME280;33502;47.182;27.506;2022-12-01T07:58:35;101495.56;;;-1.42;100.00
47738;BME280;33502;47.182;27.506;2022-12-01T08:01:09;101504.28;;;-1.40;100.00
47738;BME280;33502;47.182;27.506;2022-12-01T08:03:35;101512.94;;;-1.41;100.00
47738;BME280;33502;47.182;27.506;2022-12-01T08:06:02;101514.63;;;-1.43;100.00
47738;BME280;33502;47.182;27.506;2022-12-01T08:08:29;101511.06;;;-1.46;100.00
47738;BME280;33502;47.182;27.506;2022-12-01T08:11:00;101510.00;;;-1.53;100.00
47738;BME280;33502;47.182;27.506;2022-12-01T08:13:26;101502.16;;;-1.56;100.00
47738;BME280;33502;47.182;27.506;2022-12-01T08:15:52;101496.03;;;-1.58;100.00
47738;BME280;33502;47.182;27.506;2022-12-01T08:18:18;101491.72;;;-1.58;100.00
47738;BME280;33502;47.182;27.506;2022-12-01T08:20:44;101486.53;;;-1.58;100.00
47738;BME280;33502;47.182;27.506;2022-12-01T08:23:09;101491.81;;;-1.54;100.00
47738;BME280;33502;47.182;27.506;2022-12-01T08:25:35;101489.22;;;-1.53;100.00
47738;BME280;33502;47.182;27.506;2022-12-01T08:28:01;101491.81;;;-1.53;100.00
47738;BME280;33502;47.182;27.506;2022-12-01T08:30:27;101485.03;;;-1.48;100.00
47738;BME280;33502;47.182;27.506;2022-12-01T08:32:55;101487.72;;;-1.45;100.00
47738;BME280;33502;47.182;27.506;2022-12-01T08:35:21;101480.72;;;-1.47;100.00
47738;BME280;33502;47.182;27.506;2022-12-01T08:37:50;101461.69;;;-1.46;100.00
47738;BME280;33502;47.182;27.506;2022-12-01T08:40:16;101463.44;;;-1.47;100.00
47738;BME280;33502;47.182;27.506;2022-12-01T08:42:42;101468.63;;;-1.45;100.00
47738;BME280;33502;47.182;27.506;2022-12-01T08:45:08;101470.41;;;-1.44;100.00
47738;BME280;33502;47.182;27.506;2022-12-01T08:47:34;101471.31;;;-1.42;100.00
47738;BME280;33502;47.182;27.506;2022-12-01T08:49:59;101471.47;;;-1.36;100.00
47738;BME280;33502;47.182;27.506;2022-12-01T08:52:30;101466.31;;;-1.34;100.00
47738;BME280;33502;47.182;27.506;2022-12-01T08:54:56;101456.97;;;-1.26;100.00
47738;BME280;33502;47.182;27.506;2022-12-01T08:57:22;101463.19;;;-1.20;100.00
47738;BME280;33502;47.182;27.506;2022-12-01T08:59:48;101472.88;;;-1.14;100.00
47738;BME280;33502;47.182;27.506;2022-12-01T09:02:15;101470.19;;;-1.17;100.00
47738;BME280;33502;47.182;27.506;2022-12-01T09:04:42;101473.69;;;-1.15;100.00
47738;BME280;33502;47.182;27.506;2022-12-01T09:07:09;101476.28;;;-1.15;100.00
47738;BME280;33502;47.182;27.506;2022-12-01T09:09:36;101470.19;;;-1.17;100.00
47738;BME280;33502;47.182;27.506;2022-12-01T09:12:02;101473.66;;;-1.18;100.00
47738;BME280;33502;47.182;27.506;2022-12-01T09:14:28;101464.97;;;-1.17;100.00
47738;BME280;33502;47.182;27.506;2022-12-01T09:16:54;101466.75;;;-1.16;100.00
47738;BME280;33502;47.182;27.506;2022-12-01T09:19:20;101458.03;;;-1.18;100.00
47738;BME280;33502;47.182;27.506;2022-12-01T09:21:46;101457.22;;;-1.15;100.00
47738;BME280;33502;47.182;27.506;2022-12-01T09:24:13;101452.00;;;-1.17;100.00
47738;BME280;33502;47.182;27.506;2022-12-01T09:26:41;101447.69;;;-1.15;100.00
47738;BME280;33502;47.182;27.506;2022-12-01T09:29:09;101448.66;;;-1.11;100.00
47738;BME280;33502;47.182;27.506;2022-12-01T09:31:35;101444.44;;;-1.06;100.00
47738;BME280;33502;47.182;27.506;2022-12-01T09:34:04;101442.84;;;-1.00;100.00
47738;BME280;33502;47.182;27.506;2022-12-01T09:36:31;101448.97;;;-0.98;100.00
47738;BME280;33502;47.182;27.506;2022-12-01T09:38:58;101460.31;;;-0.95;100.00
47738;BME280;33502;47.182;27.506;2022-12-01T09:41:39;101448.16;;;-0.95;100.00
47738;BME280;33502;47.182;27.506;2022-12-01T09:46:59;101448.94;;;-0.99;100.00
47738;BME280;33502;47.182;27.506;2022-12-01T09:49:43;101447.09;;;-1.05;100.00
47738;BME280;33502;47.182;27.506;2022-12-01T09:52:13;101447.88;;;-1.09;100.00
47738;BME280;33502;47.182;27.506;2022-12-01T09:54:40;101449.59;;;-1.08;100.00
47738;BME280;33502;47.182;27.506;2022-12-01T09:57:15;101442.81;;;-1.03;100.00
47738;BME280;33502;47.182;27.506;2022-12-01T09:59:42;101436.78;;;-1.00;100.00
47738;BME280;33502;47.182;27.506;2022-12-01T10:02:21;101428.06;;;-1.02;100.00
47738;BME280;33502;47.182;27.506;2022-12-01T10:04:50;101432.41;;;-1.03;100.00
47738;BME280;33502;47.182;27.506;2022-12-01T10:07:23;101425.47;;;-1.02;100.00
47738;BME280;33502;47.182;27.506;2022-12-01T10:09:56;101424.66;;;-1.01;100.00
47738;BME280;33502;47.182;27.506;2022-12-01T10:12:25;101430.63;;;-1.04;100.00
47738;BME280;33502;47.182;27.506;2022-12-01T10:15:21;101423.56;;;-1.09;100.00
47738;BME280;33502;47.182;27.506;2022-12-01T10:20:35;101428.78;;;-1.09;100.00
47738;BME280;33502;47.182;27.506;2022-12-01T10:25:56;101413.94;;;-1.13;100.00
47738;BME280;33502;47.182;27.506;2022-12-01T10:31:47;101408.78;;;-1.12;100.00
47738;BME280;33502;47.182;27.506;2022-12-01T10:34:17;101414.06;;;-1.09;100.00
47738;BME280;33502;47.182;27.506;2022-12-01T10:36:44;101409.78;;;-1.05;100.00
47738;BME280;33502;47.182;27.506;2022-12-01T10:41:50;101403.84;;;-1.00;100.00
47738;BME280;33502;47.182;27.506;2022-12-01T10:44:17;101403.72;;;-1.06;100.00
47738;BME280;33502;47.182;27.506;2022-12-01T10:46:48;101400.34;;;-1.03;100.00
47738;BME280;33502;47.182;27.506;2022-12-01T10:49:16;101402.91;;;-1.05;100.00
47738;BME280;33502;47.182;27.506;2022-12-01T10:51:54;101394.22;;;-1.04;100.00
47738;BME280;33502;47.182;27.506;2022-12-01T10:54:22;101394.09;;;-1.10;100.00
47738;BME280;33502;47.182;27.506;2022-12-01T10:56:51;101397.44;;;-1.15;100.00
47738;BME280;33502;47.182;27.506;2022-12-01T11:01:53;101393.69;;;-1.28;100.00
47738;BME280;33502;47.182;27.506;2022-12-01T11:06:48;101393.50;;;-1.36;100.00
47738;BME280;33502;47.182;27.506;2022-12-01T11:09:20;101388.31;;;-1.38;100.00
47738;BME280;33502;47.182;27.506;2022-12-01T11:11:56;101397.06;;;-1.32;100.00
47738;BME280;33502;47.182;27.506;2022-12-01T11:14:31;101391.88;;;-1.32;100.00
47738;BME280;33502;47.182;27.506;2022-12-01T11:19:47;101387.50;;;-1.35;100.00
47738;BME280;33502;47.182;27.506;2022-12-01T11:22:25;101382.25;;;-1.36;100.00
47738;BME280;33502;47.182;27.506;2022-12-01T11:27:22;101378.03;;;-1.31;100.00
47738;BME280;33502;47.182;27.506;2022-12-01T11:29:51;101377.22;;;-1.29;100.00
47738;BME280;33502;47.182;27.506;2022-12-01T11:32:22;101373.81;;;-1.26;100.00
47738;BME280;33502;47.182;27.506;2022-12-01T11:35:02;101371.25;;;-1.25;100.00
47738;BME280;33502;47.182;27.506;2022-12-01T11:37:36;101376.44;;;-1.25;100.00
47738;BME280;33502;47.182;27.506;2022-12-01T11:42:54;101371.28;;;-1.23;100.00
47738;BME280;33502;47.182;27.506;2022-12-01T11:45:37;101370.50;;;-1.19;100.00
47738;BME280;33502;47.182;27.506;2022-12-01T11:50:34;101358.63;;;-1.08;100.00
47738;BME280;33502;47.182;27.506;2022-12-01T11:53:01;101357.84;;;-1.04;100.00
47738;BME280;33502;47.182;27.506;2022-12-01T11:55:30;101359.63;;;-1.03;100.00
47738;BME280;33502;47.182;27.506;2022-12-01T11:57:59;101357.97;;;-0.98;100.00
47738;BME280;33502;47.182;27.506;2022-12-01T12:00:29;101362.56;;;-0.84;100.00
47738;BME280;33502;47.182;27.506;2022-12-01T12:03:04;101360.16;;;-0.75;100.00
47738;BME280;33502;47.182;27.506;2022-12-01T12:08:44;101359.38;;;-0.72;100.00
47738;BME280;33502;47.182;27.506;2022-12-01T12:11:23;101357.72;;;-0.69;100.00
47738;BME280;33502;47.182;27.506;2022-12-01T12:33:11;101359.25;;;-0.33;100.00
47738;BME280;33502;47.182;27.506;2022-12-01T12:38:51;101365.97;;;-0.44;100.00
47738;BME280;33502;47.182;27.506;2022-12-01T12:52:16;101358.28;;;-0.84;100.00
47738;BME280;33502;47.182;27.506;2022-12-01T12:54:49;101366.03;;;-0.85;100.00
47738;BME280;33502;47.182;27.506;2022-12-01T12:57:25;101360.78;;;-0.87;100.00
47738;BME280;33502;47.182;27.506;2022-12-01T12:59:59;101353.03;;;-0.85;100.00
47738;BME280;33502;47.182;27.506;2022-12-01T13:08:24;101354.94;;;-0.78;100.00
47738;BME280;33502;47.182;27.506;2022-12-01T13:11:07;101360.09;;;-0.80;100.00
47738;BME280;33502;47.182;27.506;2022-12-01T13:16:13;101354.78;;;-0.84;100.00
47738;BME280;33502;47.182;27.506;2022-12-01T13:19:02;101354.72;;;-0.87;100.00
47738;BME280;33502;47.182;27.506;2022-12-01T13:21:33;101359.84;;;-0.90;100.00
47738;BME280;33502;47.182;27.506;2022-12-01T13:24:02;101358.91;;;-0.94;100.00
47738;BME280;33502;47.182;27.506;2022-12-01T13:26:29;101364.00;;;-1.00;100.00
47738;BME280;33502;47.182;27.506;2022-12-01T13:28:56;101359.56;;;-1.04;100.00
47738;BME280;33502;47.182;27.506;2022-12-01T13:31:23;101362.09;;;-1.07;100.00
47738;BME280;33502;47.182;27.506;2022-12-01T13:34:00;101357.75;;;-1.08;100.00
47738;BME280;33502;47.182;27.506;2022-12-01T13:36:27;101357.72;;;-1.10;100.00
47738;BME280;33502;47.182;27.506;2022-12-01T13:39:06;101348.94;;;-1.15;100.00
47738;BME280;33502;47.182;27.506;2022-12-01T13:41:39;101348.94;;;-1.15;100.00
47738;BME280;33502;47.182;27.506;2022-12-01T13:44:43;101347.16;;;-1.17;100.00
47738;BME280;33502;47.182;27.506;2022-12-01T13:49:42;101353.19;;;-1.19;100.00
47738;BME280;33502;47.182;27.506;2022-12-01T13:57:38;101338.31;;;-1.26;100.00
47738;BME280;33502;47.182;27.506;2022-12-01T14:06:04;101335.75;;;-1.24;100.00
47738;BME280;33502;47.182;27.506;2022-12-01T14:08:35;101340.03;;;-1.26;100.00
47738;BME280;33502;47.182;27.506;2022-12-01T14:11:22;101341.72;;;-1.30;100.00
47738;BME280;33502;47.182;27.506;2022-12-01T14:17:01;101339.91;;;-1.32;100.00
47738;BME280;33502;47.182;27.506;2022-12-01T14:19:48;101330.38;;;-1.32;100.00
47738;BME280;33502;47.182;27.506;2022-12-01T14:22:37;101326.06;;;-1.31;100.00
47738;BME280;33502;47.182;27.506;2022-12-01T14:27:45;101323.44;;;-1.33;100.00
47738;BME280;33502;47.182;27.506;2022-12-01T14:39:31;101323.41;;;-1.34;100.00
47738;BME280;33502;47.182;27.506;2022-12-01T14:41:44;101318.16;;;-1.38;100.00
47738;BME280;33502;47.182;27.506;2022-12-01T14:47:01;101325.09;;;-1.36;100.00
47738;BME280;33502;47.182;27.506;2022-12-01T14:49:38;101322.50;;;-1.36;100.00
47738;BME280;33502;47.182;27.506;2022-12-01T14:52:12;101323.34;;;-1.38;100.00
47738;BME280;33502;47.182;27.506;2022-12-01T14:54:45;101324.19;;;-1.39;100.00
47738;BME280;33502;47.182;27.506;2022-12-01T14:57:12;101321.56;;;-1.39;100.00
47738;BME280;33502;47.182;27.506;2022-12-01T14:59:40;101327.66;;;-1.38;100.00
47738;BME280;33502;47.182;27.506;2022-12-01T15:02:09;101319.81;;;-1.40;100.00
47738;BME280;33502;47.182;27.506;2022-12-01T15:05:04;101322.41;;;-1.40;100.00
47738;BME280;33502;47.182;27.506;2022-12-01T15:07:39;101327.66;;;-1.38;100.00